Time;durP1;ratioP1;P1;durP2;ratioP2;P2;SDS_P1;SDS_P2;PMS_P1;PMS_P2;Temp;Humidity;BMP_temperature;BMP_pressure;BME280_temperature;BME280_humidity;BME280_pressure;Samples;Min_cycle;Max_cycle;Signal;HPM_P1;HPM_P2
2021/10/21 00:02:21;;;;;;;37.25;11.85;;;;;;;20.24;100.00;98788.50;5096309;28;20460;-57
2021/10/21 00:04:47;;;;;;;34.10;14.80;;;;;;;21.41;100.00;98760.28;5096555;28;20386;-56
2021/10/21 00:07:12;;;;;;;34.15;11.88;;;;;;;20.86;100.00;98759.72;5095522;28;20066;-57
2021/10/21 00:09:38;;;;;;;33.38;12.27;;;;;;;20.63;100.00;98735.34;5094975;28;20032;-56
2021/10/21 00:12:04;;;;;;;44.53;12.52;;;;;;;20.91;100.00;98697.09;5094676;28;20040;-58
2021/10/21 00:14:31;;;;;;;52.95;12.95;;;;;;;21.24;100.00;98671.38;5095805;28;20039;-58
2021/10/21 00:16:56;;;;;;;23.57;10.67;;;;;;;20.89;100.00;98683.84;5094879;28;20028;-56
2021/10/21 00:19:22;;;;;;;20.00;8.93;;;;;;;21.56;100.00;98677.44;5095926;28;20352;-58
2021/10/21 00:21:48;;;;;;;18.87;7.70;;;;;;;20.87;100.00;98658.09;5095798;28;20056;-56
2021/10/21 00:24:14;;;;;;;;;;;;;;;20.84;100.00;98653.31;5078359;28;20355;-57
2021/10/21 00:26:40;;;;;;;14.77;6.63;;;;;;;20.70;100.00;98632.47;5095680;28;19907;-56
2021/10/21 00:29:05;;;;;;;15.40;7.13;;;;;;;20.89;100.00;98626.78;5077814;28;20260;-58
2021/10/21 00:31:31;;;;;;;18.07;6.60;;;;;;;20.94;100.00;98604.09;5096175;28;20028;-57
2021/10/21 00:33:56;;;;;;;13.98;6.25;;;;;;;20.70;100.00;98604.53;5095623;28;20043;-57
2021/10/21 00:36:22;;;;;;;13.93;6.77;;;;;;;20.59;100.00;98588.53;5094166;28;20077;-58
2021/10/21 00:38:47;;;;;;;13.73;6.47;;;;;;;20.51;100.00;98583.09;5094350;28;20280;-57
2021/10/21 00:41:13;;;;;;;20.20;5.97;;;;;;;20.26;100.00;98604.44;5095309;28;20272;-58
2021/10/21 00:43:39;;;;;;;13.37;5.47;;;;;;;20.20;100.00;98585.59;5077424;28;20044;-57
2021/10/21 00:46:07;;;;;;;12.27;4.57;;;;;;;19.85;100.00;98566.47;5095168;28;20283;-57
2021/10/21 00:48:37;;;;;;;8.80;4.57;;;;;;;20.04;100.00;98578.97;5095924;28;20269;-58
2021/10/21 00:51:06;;;;;;;13.47;4.50;;;;;;;20.05;100.00;98564.31;5093931;28;20265;-59
2021/10/21 00:53:33;;;;;;;12.17;4.67;;;;;;;20.28;100.00;98575.06;5094293;28;20256;-58
2021/10/21 00:55:58;;;;;;;9.27;4.23;;;;;;;20.20;100.00;98563.88;5094136;28;20264;-60
2021/10/21 00:58:24;;;;;;;11.68;4.45;;;;;;;19.74;100.00;98575.97;5095536;28;20322;-59
2021/10/21 01:00:52;;;;;;;12.85;4.63;;;;;;;19.96;100.00;98569.72;5094585;28;20454;-59
2021/10/21 01:03:18;;;;;;;13.90;5.07;;;;;;;19.88;100.00;98603.00;5094198;28;20080;-58
2021/10/21 01:05:44;;;;;;;7.73;4.00;;;;;;;19.81;100.00;98576.31;5094905;28;20261;-59
2021/10/21 01:08:10;;;;;;;12.30;4.70;;;;;;;19.51;100.00;98595.00;5095684;28;20261;-58
2021/10/21 01:10:37;;;;;;;9.00;3.73;;;;;;;19.78;100.00;98625.75;5095221;28;20035;-59
2021/10/21 01:13:02;;;;;;;;;;;;;;;19.76;100.00;98617.13;5095503;28;20389;-59
2021/10/21 01:15:28;;;;;;;4.77;1.93;;;;;;;19.66;100.00;98614.69;5095218;28;20014;-58
2021/10/21 01:17:55;;;;;;;5.28;1.63;;;;;;;19.37;100.00;98626.78;5095262;28;20347;-59
2021/10/21 01:20:22;;;;;;;2.30;0.90;;;;;;;18.43;100.00;98631.50;5094631;28;20142;-57
2021/10/21 01:22:48;;;;;;;1.67;0.73;;;;;;;18.61;100.00;98621.69;5093985;28;20307;-59
2021/10/21 01:25:15;;;;;;;7.18;0.68;;;;;;;18.13;100.00;98641.84;5093581;28;20261;-57
2021/10/21 01:27:46;;;;;;;2.43;0.50;;;;;;;18.14;100.00;98634.53;5094257;28;20339;-59
2021/10/21 01:30:24;;;;;;;3.07;0.70;;;;;;;18.30;100.00;98618.81;5094456;28;20276;-58
2021/10/21 01:32:52;;;;;;;5.30;0.70;;;;;;;18.27;100.00;98619.41;5094717;28;20260;-59
2021/10/21 01:35:18;;;;;;;2.47;0.90;;;;;;;18.02;100.00;98611.50;5093080;28;20373;-60
2021/10/21 01:37:44;;;;;;;0.75;0.40;;;;;;;17.73;100.00;98638.75;5094266;28;20727;-58
2021/10/21 01:40:11;;;;;;;2.38;0.73;;;;;;;17.69;100.00;98605.31;5094137;28;20027;-58
2021/10/21 01:42:43;;;;;;;1.27;0.50;;;;;;;18.28;100.00;98596.66;5076448;28;20042;-59
2021/10/21 01:45:24;;;;;;;1.50;0.57;;;;;;;18.12;100.00;98607.78;5093435;28;20265;-59
2021/10/21 01:47:51;;;;;;;1.23;0.67;;;;;;;17.85;100.00;98598.53;5095004;28;20261;-59
2021/10/21 01:50:17;;;;;;;2.72;0.55;;;;;;;17.74;100.00;98597.91;5094088;28;20745;-57
2021/10/21 01:52:43;;;;;;;;;;;;;;;17.89;100.00;98587.94;5076485;28;20040;-59
2021/10/21 01:55:09;;;;;;;4.47;0.80;;;;;;;18.29;100.00;98588.25;5094282;28;19919;-63
2021/10/21 01:57:35;;;;;;;;;;;;;;;17.97;100.00;98594.53;5094943;28;20112;-59
2021/10/21 02:00:00;;;;;;;5.43;0.87;;;;;;;18.02;100.00;98591.78;5093724;28;20345;-60
2021/10/21 02:02:25;;;;;;;2.00;0.60;;;;;;;17.89;100.00;98587.94;5093674;28;20040;-59
2021/10/21 02:04:51;;;;;;;2.45;1.15;;;;;;;18.36;100.00;98573.53;5093661;28;20595;-60
2021/10/21 02:07:17;;;;;;;7.17;0.97;;;;;;;18.33;100.00;98596.56;5093324;28;20499;-59
2021/10/21 02:09:42;;;;;;;7.18;1.00;;;;;;;17.98;100.00;98574.50;5092717;28;20602;-58
2021/10/21 02:12:08;;;;;;;6.15;0.80;;;;;;;18.23;100.00;98558.91;5094063;28;20458;-59
2021/10/21 02:14:33;;;;;;;4.97;0.85;;;;;;;18.28;100.00;98550.69;5093634;28;20028;-59
2021/10/21 02:17:00;;;;;;;3.50;0.90;;;;;;;18.24;100.00;98545.06;5093487;28;20040;-59
2021/10/21 02:19:26;;;;;;;7.60;0.87;;;;;;;18.15;100.00;98547.69;5093342;28;20032;-58
2021/10/21 02:21:51;;;;;;;4.87;1.60;;;;;;;18.18;100.00;98544.38;5093364;28;20309;-59
2021/10/21 02:24:17;;;;;;;8.70;1.37;;;;;;;18.19;100.00;98532.44;5093674;28;20043;-59
2021/10/21 02:26:42;;;;;;;5.83;1.00;;;;;;;18.23;100.00;98531.84;5092099;28;20265;-57
2021/10/21 02:29:08;;;;;;;3.33;0.60;;;;;;;18.10;100.00;98520.75;5092795;28;20284;-58
2021/10/21 02:31:33;;;;;;;5.73;1.50;;;;;;;18.58;100.00;98534.88;5093451;28;20256;-58
2021/10/21 02:33:58;;;;;;;1.97;1.17;;;;;;;18.13;100.00;98535.56;5093077;28;20123;-59
2021/10/21 02:36:24;;;;;;;6.67;0.87;;;;;;;18.17;100.00;98523.03;5093210;28;20047;-58
2021/10/21 02:38:50;;;;;;;10.60;1.45;;;;;;;18.18;100.00;98527.34;5093483;28;20032;-59
2021/10/21 02:41:15;;;;;;;4.20;1.43;;;;;;;18.05;100.00;98510.03;5093080;28;20130;-59
2021/10/21 02:43:42;;;;;;;8.45;2.35;;;;;;;18.18;100.00;98514.59;5093574;28;20040;-58
2021/10/21 02:46:08;;;;;;;4.23;1.00;;;;;;;18.24;100.00;98512.59;5093152;28;20097;-59
2021/10/21 02:48:34;;;;;;;9.07;0.93;;;;;;;18.23;100.00;98513.72;5093029;28;20343;-60
2021/10/21 02:51:00;;;;;;;5.93;1.52;;;;;;;18.28;100.00;98518.22;5092124;28;20128;-58
2021/10/21 02:53:25;;;;;;;4.43;1.10;;;;;;;18.09;100.00;98502.09;5091724;28;20036;-59
2021/10/21 02:55:50;;;;;;;3.73;0.77;;;;;;;18.17;100.00;98504.91;5093164;28;20028;-58
2021/10/21 02:58:16;;;;;;;7.05;1.42;;;;;;;18.28;100.00;98504.69;5093530;28;20058;-58
2021/10/21 03:00:41;;;;;;;7.03;1.30;;;;;;;18.04;100.00;98506.53;5093414;28;20043;-61
2021/10/21 03:03:07;;;;;;;5.13;1.00;;;;;;;18.30;100.00;98499.78;5075810;28;20746;-61
2021/10/21 03:05:32;;;;;;;2.15;0.90;;;;;;;17.63;100.00;98510.00;5092206;28;20064;-59
2021/10/21 03:07:59;;;;;;;4.47;1.63;;;;;;;17.57;100.00;98541.75;5075922;28;20079;-59
2021/10/21 03:10:25;;;;;;;5.70;1.10;;;;;;;17.57;100.00;98512.00;5093153;28;20259;-60
2021/10/21 03:12:51;;;;;;;3.83;0.90;;;;;;;17.56;100.00;98501.50;5092297;28;20722;-59
2021/10/21 03:15:16;;;;;;;6.20;1.23;;;;;;;17.36;100.00;98506.16;5092822;28;20025;-59
2021/10/21 03:17:42;;;;;;;11.57;2.65;;;;;;;17.28;100.00;98510.34;5093275;28;20526;-59
2021/10/21 03:20:12;;;;;;;6.00;1.20;;;;;;;17.56;100.00;98496.91;5075403;28;20067;-60
2021/10/21 03:22:39;;;;;;;3.47;0.87;;;;;;;17.67;100.00;98504.81;5075027;28;20127;-60
2021/10/21 03:25:07;;;;;;;8.67;0.90;;;;;;;17.02;100.00;98505.41;5092336;28;20260;-60
2021/10/21 03:27:34;;;;;;;6.57;1.50;;;;;;;17.28;100.00;98525.78;5092995;28;20276;-61
2021/10/21 03:29:59;;;;;;;7.80;1.48;;;;;;;17.54;100.00;98512.63;5091882;28;20260;-61
2021/10/21 03:32:25;;;;;;;4.72;2.28;;;;;;;17.67;100.00;98497.50;5091912;28;20131;-60
2021/10/21 03:34:50;;;;;;;8.65;1.75;;;;;;;17.59;100.00;98504.41;5091734;28;20034;-60
2021/10/21 03:37:16;;;;;;;14.10;2.17;;;;;;;17.55;100.00;98492.59;5093054;28;20354;-60
2021/10/21 03:39:42;;;;;;;6.18;1.88;;;;;;;17.60;100.00;98508.72;5092429;28;20140;-60
2021/10/21 03:42:09;;;;;;;7.80;2.55;;;;;;;17.67;100.00;98488.59;5095662;28;20059;-61
2021/10/21 03:44:37;;;;;;;9.17;1.60;;;;;;;17.74;100.00;98494.38;5095033;28;20504;-59
2021/10/21 03:47:04;;;;;;;5.73;2.23;;;;;;;17.75;100.00;98499.50;5095279;28;20269;-59
2021/10/21 03:49:30;;;;;;;1.58;1.13;;;;;;;17.62;100.00;98497.59;5078829;28;20637;-60
2021/10/21 03:51:56;;;;;;;6.07;1.27;;;;;;;17.84;100.00;98507.72;5096277;28;20032;-59
2021/10/21 03:54:22;;;;;;;7.68;1.50;;;;;;;17.59;100.00;98492.78;5095652;28;20032;-59
2021/10/21 03:56:48;;;;;;;7.30;1.85;;;;;;;17.77;100.00;98504.63;5096202;28;20039;-60
2021/10/21 03:59:14;;;;;;;11.60;1.75;;;;;;;17.70;100.00;98488.81;5095781;28;20123;-59
2021/10/21 04:01:39;;;;;;;6.47;1.77;;;;;;;17.88;100.00;98483.59;5077890;28;20121;-60
2021/10/21 04:04:05;;;;;;;14.90;2.03;;;;;;;17.78;100.00;98484.59;5095234;28;20322;-60
2021/10/21 04:06:31;;;;;;;6.63;1.67;;;;;;;17.82;100.00;98501.00;5095954;28;20260;-60
2021/10/21 04:08:56;;;;;;;9.93;1.95;;;;;;;17.69;100.00;98472.88;5096526;28;20043;-60
2021/10/21 04:11:22;;;;;;;4.13;1.25;;;;;;;17.37;100.00;98469.16;5061483;28;20039;-59
2021/10/21 04:13:47;;;;;;;8.25;1.80;;;;;;;17.66;100.00;98473.47;5096285;28;20032;-59
2021/10/21 04:16:13;;;;;;;11.70;2.60;;;;;;;17.62;100.00;98474.06;5096009;28;20426;-61
2021/10/21 04:18:38;;;;;;;6.07;1.77;;;;;;;17.86;100.00;98464.13;5095540;28;20439;-60
2021/10/21 04:21:04;;;;;;;6.27;2.17;;;;;;;17.53;100.00;98475.06;5095748;28;20485;-60
2021/10/21 04:23:30;;;;;;;6.63;2.00;;;;;;;17.74;100.00;98481.69;5094704;28;20071;-60
2021/10/21 04:25:55;;;;;;;4.63;1.60;;;;;;;17.96;100.00;98485.56;5094854;28;20063;-60
2021/10/21 04:28:21;;;;;;;8.45;1.70;;;;;;;17.63;100.00;98486.50;5096331;28;20040;-60
2021/10/21 04:30:46;;;;;;;7.53;2.13;;;;;;;17.94;100.00;98497.78;5095437;28;20028;-60
2021/10/21 04:33:12;;;;;;;5.53;1.47;;;;;;;17.68;100.00;98495.59;5094747;28;20503;-59
2021/10/21 04:35:37;;;;;;;7.53;1.60;;;;;;;17.20;100.00;98486.75;5095247;28;20688;-53
2021/10/21 04:38:05;;;;;;;6.75;1.80;;;;;;;17.23;100.00;98496.94;5095484;28;20040;-59
2021/10/21 04:40:30;;;;;;;5.10;2.03;;;;;;;17.87;100.00;98481.97;5094119;28;20082;-59
2021/10/21 04:42:56;;;;;;;9.05;2.13;;;;;;;18.11;100.00;98492.59;5077335;28;20308;-59
2021/10/21 04:45:22;;;;;;;11.97;2.00;;;;;;;18.22;100.00;98504.00;5093980;28;20035;-60
2021/10/21 04:47:48;;;;;;;8.57;2.15;;;;;;;17.58;100.00;98505.50;5095560;28;20272;-59
2021/10/21 04:50:13;;;;;;;6.72;1.80;;;;;;;17.64;100.00;98506.19;5095612;28;20046;-60
2021/10/21 04:52:39;;;;;;;8.15;2.45;;;;;;;17.89;100.00;98510.31;5095291;28;20032;-60
2021/10/21 04:55:07;;;;;;;8.02;2.17;;;;;;;17.77;100.00;98523.53;5095235;28;20192;-60
2021/10/21 04:57:33;;;;;;;11.93;2.27;;;;;;;17.77;100.00;98520.84;5095679;28;20035;-59
2021/10/21 04:59:59;;;;;;;22.42;2.60;;;;;;;17.78;100.00;98538.66;5094836;28;20252;-59
2021/10/21 05:02:24;;;;;;;10.38;2.03;;;;;;;18.23;100.00;98531.84;5094000;28;20032;-59
2021/10/21 05:04:50;;;;;;;10.83;2.87;;;;;;;17.80;100.00;98558.09;5093658;28;20390;-61
2021/10/21 05:07:15;;;;;;;7.77;2.57;;;;;;;17.45;100.00;98552.22;5093846;28;20277;-59
2021/10/21 05:09:40;;;;;;;6.93;2.97;;;;;;;17.51;100.00;98556.41;5094601;28;20454;-60
2021/10/21 05:12:06;;;;;;;19.63;2.93;;;;;;;17.20;100.00;98576.69;5093707;28;20261;-61
2021/10/21 05:14:32;;;;;;;40.60;4.78;;;;;;;17.03;100.00;98606.09;5093676;28;20107;-61
2021/10/21 05:16:57;;;;;;;14.65;3.85;;;;;;;17.29;100.00;98627.31;5094948;28;20484;-59
2021/10/21 05:19:23;;;;;;;10.60;3.40;;;;;;;17.45;100.00;98635.97;5095128;28;20411;-60
2021/10/21 05:21:48;;;;;;;6.20;2.17;;;;;;;16.64;100.00;98651.16;5094913;28;20039;-61
2021/10/21 05:24:14;;;;;;;8.70;2.03;;;;;;;17.19;100.00;98685.00;5093621;28;20032;-58
2021/10/21 05:26:39;;;;;;;4.97;1.50;;;;;;;17.00;100.00;98710.09;5093209;28;20044;-60
2021/10/21 05:29:05;;;;;;;2.97;1.10;;;;;;;16.94;100.00;98734.69;5094255;28;20036;-59
2021/10/21 05:31:30;;;;;;;1.73;0.73;;;;;;;16.98;100.00;98777.06;5094566;28;20071;-59
2021/10/21 05:33:56;;;;;;;6.33;1.80;;;;;;;16.96;100.00;98803.53;5094343;28;20377;-60
2021/10/21 05:36:21;;;;;;;5.93;1.00;;;;;;;16.90;100.00;98829.78;5093511;28;20284;-60
2021/10/21 05:38:48;;;;;;;3.95;1.08;;;;;;;16.94;100.00;98864.28;5093448;28;20032;-61
2021/10/21 05:41:13;;;;;;;;;;;;;;;17.16;100.00;98901.63;5095058;28;20431;-59
2021/10/21 05:43:38;;;;;;;3.27;0.80;;;;;;;17.24;100.00;98935.31;5094476;28;19924;-59
2021/10/21 05:46:04;;;;;;;4.10;1.10;;;;;;;17.36;100.00;98964.66;5094533;28;20032;-59
2021/10/21 05:48:30;;;;;;;4.32;0.60;;;;;;;17.18;100.00;98975.91;5094805;28;20293;-60
2021/10/21 05:50:56;;;;;;;9.63;1.80;;;;;;;17.29;100.00;98997.41;5093159;28;20046;-60
2021/10/21 05:53:21;;;;;;;3.57;0.80;;;;;;;17.08;100.00;99035.41;5094067;28;20432;-60
2021/10/21 05:55:47;;;;;;;4.00;0.73;;;;;;;16.96;100.00;99051.94;5093058;28;20348;-60
2021/10/21 05:58:13;;;;;;;4.03;1.00;;;;;;;17.07;100.00;99074.28;5076302;28;20135;-60
2021/10/21 06:00:39;;;;;;;5.07;1.42;;;;;;;16.78;100.00;99091.22;5094640;28;20039;-58
2021/10/21 06:03:04;;;;;;;5.40;1.10;;;;;;;16.70;100.00;99103.41;5093871;28;20044;-60
2021/10/21 06:05:30;;;;;;;11.57;1.50;;;;;;;17.30;100.00;99134.91;5094216;28;20028;-60
2021/10/21 06:07:56;;;;;;;12.07;1.50;;;;;;;16.92;100.00;99164.28;5094835;28;20040;-60
2021/10/21 06:10:22;;;;;;;;;;;;;;;17.11;100.00;99160.97;5093341;28;20071;-59
2021/10/21 06:12:50;;;;;;;4.90;1.03;;;;;;;17.00;100.00;99177.22;5093888;28;19903;-60
2021/10/21 06:15:17;;;;;;;15.37;1.70;;;;;;;17.18;100.00;99199.25;5094024;28;20039;-59
2021/10/21 06:17:44;;;;;;;18.80;1.50;;;;;;;17.24;100.00;99217.06;5075956;28;20260;-61
2021/10/21 06:20:14;;;;;;;14.27;1.57;;;;;;;16.86;100.00;99233.69;5094124;28;20328;-60
2021/10/21 06:22:40;;;;;;;12.43;2.27;;;;;;;17.36;100.00;99251.81;5093992;28;20649;-60
2021/10/21 06:25:07;;;;;;;17.25;2.28;;;;;;;17.16;100.00;99247.34;5093564;28;20265;-59
2021/10/21 06:27:34;;;;;;;17.17;2.50;;;;;;;17.44;100.00;99269.34;5093419;28;20044;-58
2021/10/21 06:29:59;;;;;;;17.13;2.42;;;;;;;17.50;100.00;99284.44;5092546;28;20263;-58
2021/10/21 06:32:25;;;;;;;12.85;2.05;;;;;;;17.32;100.00;99299.41;5092466;28;20039;-59
2021/10/21 06:34:53;;;;;;;11.00;1.88;;;;;;;16.57;100.00;99317.19;5092493;28;20032;-60
2021/10/21 06:37:19;;;;;;;10.20;2.10;;;;;;;16.69;100.00;99319.59;5092417;28;20158;-60
2021/10/21 06:39:53;;;;;;;19.43;2.20;;;;;;;17.27;100.00;99335.34;5093712;28;20302;-57
2021/10/21 06:42:19;;;;;;;17.63;2.63;;;;;;;16.24;100.00;99343.66;5094197;28;20294;-57
2021/10/21 06:44:45;;;;;;;11.82;2.35;;;;;;;16.90;100.00;99347.34;5075556;28;20276;-58
2021/10/21 06:47:10;;;;;;;21.90;2.28;;;;;;;17.31;100.00;99362.63;5092151;28;20469;-60
2021/10/21 06:49:36;;;;;;;11.80;2.27;;;;;;;16.90;100.00;99364.34;5093364;28;20114;-59
2021/10/21 06:52:01;;;;;;;17.47;2.33;;;;;;;16.87;100.00;99377.59;5093368;28;20043;-59
2021/10/21 06:54:27;;;;;;;19.63;2.65;;;;;;;17.03;100.00;99390.00;5092783;28;20024;-59
2021/10/21 06:56:53;;;;;;;11.82;2.35;;;;;;;16.89;100.00;99410.53;5093453;28;20032;-58
2021/10/21 06:59:18;;;;;;;17.27;2.83;;;;;;;17.01;100.00;99413.78;5075196;28;20381;-60
2021/10/21 07:01:44;;;;;;;31.23;4.40;;;;;;;16.59;100.00;99434.56;5092589;28;20055;-58
2021/10/21 07:04:09;;;;;;;16.13;2.63;;;;;;;16.81;100.00;99446.16;5093175;28;20349;-59
2021/10/21 07:06:35;;;;;;;23.85;2.90;;;;;;;16.74;100.00;99468.84;5075455;28;20135;-59
2021/10/21 07:09:00;;;;;;;18.77;3.10;;;;;;;16.70;100.00;99473.19;5092316;28;20028;-60
2021/10/21 07:11:26;;;;;;;16.00;2.77;;;;;;;16.61;100.00;99491.78;5093473;28;20419;-58
2021/10/21 07:13:51;;;;;;;19.43;3.23;;;;;;;16.74;100.00;99520.16;5091947;28;20347;-56
2021/10/21 07:16:17;;;;;;;18.70;2.67;;;;;;;16.25;100.00;99528.69;5095749;28;20032;-57
2021/10/21 07:18:43;;;;;;;25.52;3.50;;;;;;;15.96;100.00;99523.75;5096960;28;20020;-56
2021/10/21 07:21:10;;;;;;;19.95;2.60;;;;;;;16.26;100.00;99547.31;5079073;28;20059;-53
2021/10/21 07:23:36;;;;;;;15.20;3.07;;;;;;;15.97;100.00;99552.31;5095760;28;20036;-57
2021/10/21 07:26:01;;;;;;;16.75;2.10;;;;;;;15.83;100.00;99551.97;5096772;28;20284;-58
2021/10/21 07:28:27;;;;;;;19.63;3.47;;;;;;;16.32;100.00;99583.19;5097148;28;20036;-56
2021/10/21 07:30:57;;;;;;;15.30;3.15;;;;;;;16.13;100.00;99594.44;5097115;28;20157;-57
2021/10/21 07:33:22;;;;;;;14.57;3.73;;;;;;;16.18;100.00;99618.75;5095743;28;20036;-58
2021/10/21 07:35:48;;;;;;;21.67;3.43;;;;;;;16.20;100.00;99621.19;5096846;28;20755;-57
2021/10/21 07:38:13;;;;;;;19.93;3.20;;;;;;;16.33;100.00;99619.88;5095698;28;20315;-58
2021/10/21 07:40:39;;;;;;;21.33;3.13;;;;;;;16.31;100.00;99644.44;5096714;28;20465;-58
2021/10/21 07:43:05;;;;;;;22.00;4.80;;;;;;;15.93;100.00;99646.41;5095943;28;20040;-59
2021/10/21 07:45:33;;;;;;;;;;;;;;;16.34;100.00;99653.88;5079025;28;20283;-59
2021/10/21 07:47:58;;;;;;;16.85;3.28;;;;;;;16.61;100.00;99685.31;5096433;28;19912;-59
2021/10/21 07:50:24;;;;;;;26.30;2.93;;;;;;;16.10;100.00;99672.38;5096298;28;20362;-60
2021/10/21 07:52:49;;;;;;;14.63;3.43;;;;;;;16.39;100.00;99670.13;5096478;28;20119;-61
2021/10/21 07:55:15;;;;;;;15.57;2.20;;;;;;;16.48;100.00;99682.03;5078345;28;20036;-58
2021/10/21 07:57:40;;;;;;;14.30;2.80;;;;;;;16.27;100.00;99686.53;5095377;28;20477;-58
2021/10/21 08:00:09;;;;;;;9.65;2.30;;;;;;;16.32;100.00;99704.59;5096895;28;20264;-58
2021/10/21 08:02:38;;;;;;;13.50;2.50;;;;;;;16.08;100.00;99707.69;5097137;28;20032;-60
2021/10/21 08:05:04;;;;;;;;;;;;;;;16.14;100.00;99714.72;5096206;28;20323;-59
2021/10/21 08:07:32;;;;;;;16.90;2.20;;;;;;;16.46;100.00;99742.72;5097085;28;20231;-60
2021/10/21 08:09:57;;;;;;;10.47;1.70;;;;;;;16.31;100.00;99730.78;5096879;28;20047;-59
2021/10/21 08:12:26;;;;;;;14.77;3.23;;;;;;;17.00;100.00;99743.53;5095844;28;20684;-60
2021/10/21 08:14:51;;;;;;;12.63;2.53;;;;;;;17.28;100.00;99733.34;5095016;28;20032;-60
2021/10/21 08:17:17;;;;;;;10.10;2.33;;;;;;;17.42;100.00;99747.97;5096082;28;20313;-60
2021/10/21 08:19:42;;;;;;;19.83;2.35;;;;;;;17.96;100.00;99745.81;5096707;28;20470;-60
2021/10/21 08:22:08;;;;;;;9.60;1.77;;;;;;;17.74;100.00;99746.06;5095661;28;20040;-59
2021/10/21 08:24:33;;;;;;;16.20;2.77;;;;;;;17.51;100.00;99766.34;5095170;28;20348;-60
2021/10/21 08:26:59;;;;;;;20.63;3.07;;;;;;;17.51;100.00;99774.44;5094526;28;20277;-60
2021/10/21 08:29:24;;;;;;;9.17;2.40;;;;;;;17.43;100.00;99776.59;5095766;28;20020;-61
2021/10/21 08:31:53;;;;;;;16.40;3.08;;;;;;;17.15;100.00;99773.28;5095735;28;20040;-60
2021/10/21 08:34:19;;;;;;;15.90;3.13;;;;;;;17.11;100.00;99801.09;5094109;28;20070;-60
2021/10/21 08:36:44;;;;;;;14.45;3.22;;;;;;;16.43;100.00;99819.63;5095421;28;20300;-60
2021/10/21 08:39:09;;;;;;;14.93;3.03;;;;;;;16.32;100.00;99810.63;5095843;28;20346;-60
2021/10/21 08:41:35;;;;;;;23.97;3.70;;;;;;;16.00;100.00;99816.84;5093829;28;20083;-58
2021/10/21 08:44:03;;;;;;;14.40;3.03;;;;;;;16.34;100.00;99815.75;5095777;28;20667;-57
2021/10/21 08:46:29;;;;;;;9.32;2.10;;;;;;;16.08;100.00;99834.44;5095204;28;20271;-58
2021/10/21 08:48:57;;;;;;;14.75;3.15;;;;;;;15.70;100.00;99847.03;5094962;28;20362;-58
2021/10/21 08:51:23;;;;;;;19.27;3.10;;;;;;;15.78;100.00;99857.34;5095504;28;20050;-55
2021/10/21 08:53:49;;;;;;;20.95;2.95;;;;;;;16.49;100.00;99866.31;5094985;28;20307;-56
2021/10/21 08:56:18;;;;;;;27.60;4.20;;;;;;;17.01;100.00;99882.91;5094764;28;20064;-57
2021/10/21 08:58:44;;;;;;;25.07;3.70;;;;;;;16.55;100.00;99875.28;5095318;28;20028;-56
2021/10/21 09:01:16;;;;;;;18.67;2.80;;;;;;;17.12;100.00;99871.06;5094951;28;20314;-57
2021/10/21 09:04:15;;;;;;;18.90;3.07;;;;;;;16.95;100.00;99890.13;5095213;28;20036;-58
2021/10/21 09:09:44;;;;;;;15.77;3.20;;;;;;;16.04;100.00;99892.66;5093821;28;20267;-59
2021/10/21 09:12:13;;;;;;;32.10;4.17;;;;;;;16.02;100.00;99908.28;5084796;28;20278;-58
2021/10/21 09:14:41;;;;;;;38.03;3.30;;;;;;;15.52;100.00;99907.44;5094982;28;20272;-57
2021/10/21 09:17:09;;;;;;;48.47;4.17;;;;;;;15.80;100.00;99903.72;5094641;28;20273;-55
2021/10/21 09:19:36;;;;;;;12.13;3.40;;;;;;;16.89;100.00;99896.56;5093764;28;20328;-56
2021/10/21 09:22:05;;;;;;;14.97;2.90;;;;;;;17.31;100.00;99908.44;5094557;28;20300;-54
2021/10/21 09:24:38;;;;;;;20.67;3.20;;;;;;;17.68;100.00;99912.91;5093202;28;20283;-57
2021/10/21 09:27:14;;;;;;;18.50;2.53;;;;;;;17.81;100.00;99917.00;5093060;28;20340;-55
2021/10/21 09:29:42;;;;;;;12.97;2.23;;;;;;;17.64;100.00;99911.78;5093603;28;20642;-56
2021/10/21 09:32:11;;;;;;;23.00;3.43;;;;;;;16.70;100.00;99926.69;5093380;28;20710;-57
2021/10/21 09:34:43;;;;;;;23.37;2.80;;;;;;;16.62;100.00;99933.38;5094142;28;20286;-56
2021/10/21 09:37:12;;;;;;;14.27;2.20;;;;;;;16.42;100.00;99917.00;5094315;28;20334;-56
2021/10/21 09:39:43;;;;;;;18.30;3.13;;;;;;;16.00;100.00;99934.69;5093929;28;20749;-55
2021/10/21 09:42:10;;;;;;;15.70;2.20;;;;;;;16.30;100.00;99928.78;5092544;28;20282;-52
2021/10/21 09:44:36;;;;;;;;;;;;;;;16.83;100.00;99936.22;5094354;28;20275;-54
2021/10/21 09:47:15;;;;;;;20.43;2.27;;;;;;;17.34;100.00;99961.94;5094141;28;19949;-57
2021/10/21 09:49:42;;;;;;;10.63;1.80;;;;;;;17.27;100.00;99962.16;5092735;28;20050;-56
2021/10/21 09:52:15;;;;;;;15.87;1.80;;;;;;;17.51;100.00;99959.03;5094420;28;20252;-57
2021/10/21 09:54:41;;;;;;;14.23;2.57;;;;;;;17.27;100.00;99972.97;5094298;28;20284;-58
2021/10/21 09:57:12;;;;;;;17.52;2.22;;;;;;;17.58;100.00;99967.75;5093349;28;20725;-58
2021/10/21 09:59:38;;;;;;;19.40;3.30;;;;;;;17.77;100.00;99964.59;5094216;28;20090;-57
2021/10/21 10:02:20;;;;;;;13.57;2.33;;;;;;;17.49;100.00;99974.72;5094181;28;20710;-58
2021/10/21 10:04:52;;;;;;;10.87;2.10;;;;;;;17.79;100.00;99997.56;5093955;28;20035;-58
2021/10/21 10:07:21;;;;;;;11.90;2.10;;;;;;;17.55;100.00;99984.50;5092832;28;20261;-58
2021/10/21 10:09:50;;;;;;;18.80;2.50;;;;;;;17.98;100.00;99983.56;5076096;28;20261;-58
2021/10/21 10:12:16;;;;;;;11.70;1.77;;;;;;;17.26;100.00;100003.78;5093918;28;20272;-55
2021/10/21 10:14:46;;;;;;;14.27;2.08;;;;;;;17.74;100.00;100001.06;5093408;28;20272;-58
2021/10/21 10:17:16;;;;;;;19.70;2.20;;;;;;;17.63;100.00;100013.72;5092401;28;20073;-58
2021/10/21 10:19:48;;;;;;;21.63;2.97;;;;;;;18.12;100.00;99982.00;5093802;28;20745;-60
2021/10/21 10:22:35;;;;;;;14.83;2.57;;;;;;;19.41;100.00;100012.94;5093376;28;20272;-59
2021/10/21 10:25:19;;;;;;;25.97;2.17;;;;;;;19.39;100.00;100009.69;5093933;28;20442;-59
2021/10/21 10:28:04;;;;;;;14.77;2.40;;;;;;;19.23;100.00;100023.25;5093905;28;20036;-58
2021/10/21 10:30:50;;;;;;;24.63;2.87;;;;;;;19.85;100.00;100020.38;5093643;28;20261;-59
2021/10/21 10:33:44;;;;;;;24.17;3.30;;;;;;;19.17;100.00;100010.81;5093391;28;20276;-60
2021/10/21 10:36:26;;;;;;;17.50;2.73;;;;;;;19.58;100.00;100023.44;5075099;28;20754;-59
2021/10/21 10:38:56;;;;;;;16.13;3.00;;;;;;;20.31;100.00;100026.69;5093223;28;20263;-60
2021/10/21 10:41:48;;;;;;;11.93;2.47;;;;;;;19.30;100.00;100037.31;5093134;28;20594;-58
2021/10/21 10:44:35;;;;;;;13.67;2.60;;;;;;;19.97;100.00;100030.09;5093183;28;20606;-59
2021/10/21 10:47:08;;;;;;;13.10;2.78;;;;;;;20.40;100.00;100027.72;5092409;28;20264;-59
2021/10/21 10:49:36;;;;;;;11.57;2.50;;;;;;;21.15;100.00;100024.97;5092928;28;20450;-59
2021/10/21 10:52:03;;;;;;;13.27;1.93;;;;;;;21.18;100.00;100032.56;5093578;28;20016;-60
2021/10/21 10:54:47;;;;;;;;;;;;;;;20.95;100.00;100040.38;5093445;28;20032;-59
2021/10/21 10:57:24;;;;;;;16.23;2.27;;;;;;;22.35;100.00;100052.44;5092593;28;19933;-60
2021/10/21 10:59:57;;;;;;;13.57;1.83;;;;;;;21.33;93.72;100051.44;5092837;28;20036;-59
2021/10/21 11:02:22;;;;;;;9.07;2.43;;;;;;;21.30;100.00;100043.88;5093403;28;20488;-58
2021/10/21 11:04:51;;;;;;;15.70;2.58;;;;;;;19.96;100.00;100061.06;5092842;28;20020;-59
2021/10/21 11:07:18;;;;;;;11.77;2.33;;;;;;;19.29;100.00;100094.53;5092167;28;20035;-59
2021/10/21 11:09:44;;;;;;;11.13;1.70;;;;;;;19.65;100.00;100055.72;5091721;28;20032;-58
2021/10/21 11:12:12;;;;;;;16.70;2.10;;;;;;;19.94;100.00;100077.59;5091819;28;20038;-58
2021/10/21 11:14:43;;;;;;;9.40;1.30;;;;;;;19.14;100.00;100070.94;5091331;28;20032;-58
2021/10/21 11:17:10;;;;;;;7.97;1.30;;;;;;;18.31;100.00;100087.88;5092834;28;20575;-59
2021/10/21 11:19:41;;;;;;;9.20;1.73;;;;;;;18.77;100.00;100075.50;5093612;28;20252;-59
2021/10/21 11:22:07;;;;;;;10.37;1.43;;;;;;;19.31;100.00;100076.09;5092875;28;20263;-59
2021/10/21 11:24:45;;;;;;;21.42;2.70;;;;;;;20.32;91.55;100075.25;5092994;28;20268;-60
2021/10/21 11:27:13;;;;;;;10.03;1.63;;;;;;;23.01;67.49;100068.13;5093242;28;20058;-60